Time;durP1;ratioP1;P1;durP2;ratioP2;P2;SDS_P1;SDS_P2;PMS_P1;PMS_P2;Temp;Humidity;BMP_temperature;BMP_pressure;BME280_temperature;BME280_humidity;BME280_pressure;Samples;Min_cycle;Max_cycle;Signal;HPM_P1;HPM_P2
2023/05/14 00:02:06;;;;;;;8.17;7.57;;;;;;;8.91;100.00;97018.66;5024890;28;20891;-60
2023/05/14 00:04:34;;;;;;;7.63;7.03;;;;;;;8.94;100.00;97008.56;5071863;28;20208;-63
2023/05/14 00:07:03;;;;;;;7.77;7.17;;;;;;;8.95;100.00;97006.72;5050328;27;20346;-61
2023/05/14 00:09:31;;;;;;;7.87;7.27;;;;;;;8.97;100.00;97007.38;5071303;27;20193;-61
2023/05/14 00:11:59;;;;;;;8.13;7.53;;;;;;;8.95;100.00;97004.91;5073260;27;20327;-61
2023/05/14 00:14:26;;;;;;;7.17;6.67;;;;;;;8.92;100.00;97000.00;5073667;27;20225;-61
2023/05/14 00:16:54;;;;;;;7.33;6.73;;;;;;;8.88;100.00;96990.75;5020901;27;20236;-61
2023/05/14 00:19:21;;;;;;;7.37;6.77;;;;;;;8.85;100.00;97001.66;5073152;28;20201;-59
2023/05/14 00:21:49;;;;;;;7.43;6.83;;;;;;;8.72;100.00;96989.09;5061811;27;20198;-60
2023/05/14 00:24:18;;;;;;;6.50;6.00;;;;;;;8.53;100.00;96972.69;5070524;27;20556;-62
2023/05/14 00:26:45;;;;;;;7.07;6.57;;;;;;;8.53;100.00;96985.91;5072765;27;20534;-60
2023/05/14 00:29:13;;;;;;;7.33;6.70;;;;;;;8.46;100.00;96992.84;5074144;27;20393;-63
2023/05/14 00:31:41;;;;;;;7.00;6.50;;;;;;;8.36;100.00;96984.34;5062753;27;20672;-61
2023/05/14 00:34:08;;;;;;;7.87;7.27;;;;;;;8.31;100.00;96992.78;5040533;27;20225;-61
2023/05/14 00:36:36;;;;;;;7.83;7.23;;;;;;;8.28;100.00;96985.22;5071842;27;20210;-62
2023/05/14 00:39:04;;;;;;;7.43;6.83;;;;;;;8.27;100.00;96988.84;5047337;28;20197;-59
2023/05/14 00:41:33;;;;;;;7.57;6.87;;;;;;;8.36;100.00;96981.72;5067886;27;20226;-61
2023/05/14 00:44:00;;;;;;;7.63;7.03;;;;;;;8.19;100.00;96963.31;5067348;27;20764;-59
2023/05/14 00:46:28;;;;;;;7.63;7.13;;;;;;;8.18;100.00;96972.22;5069514;28;20202;-58
2023/05/14 00:48:56;;;;;;;7.40;6.90;;;;;;;8.11;100.00;96980.00;5011743;27;20752;-62
2023/05/14 00:51:23;;;;;;;6.73;6.27;;;;;;;8.03;100.00;96981.88;5074927;28;20221;-61
2023/05/14 00:53:51;;;;;;;7.83;7.20;;;;;;;8.04;100.00;96986.16;5046861;27;20609;-61
2023/05/14 00:56:20;;;;;;;7.43;6.87;;;;;;;8.00;100.00;96984.88;5074663;27;20201;-62
2023/05/14 00:58:49;;;;;;;7.43;6.90;;;;;;;8.02;100.00;96983.69;5070097;27;20206;-62
2023/05/14 01:01:16;;;;;;;8.00;7.40;;;;;;;8.05;100.00;96982.53;5073177;27;20236;-62
2023/05/14 01:03:44;;;;;;;7.93;7.33;;;;;;;8.04;100.00;96992.25;5012516;27;20237;-62
2023/05/14 01:06:15;;;;;;;7.87;7.20;;;;;;;8.04;100.00;96986.16;5071752;28;20197;-59
2023/05/14 01:08:50;;;;;;;8.50;7.77;;;;;;;8.15;100.00;96985.78;5061647;27;20209;-61
2023/05/14 01:11:21;;;;;;;8.43;7.67;;;;;;;8.15;100.00;96984.97;5068783;27;20357;-62
2023/05/14 01:13:58;;;;;;;8.00;7.50;;;;;;;8.19;100.00;96979.16;5070371;27;20221;-62
2023/05/14 01:16:27;;;;;;;8.10;7.50;;;;;;;8.06;100.00;96971.78;5066370;27;20201;-62
2023/05/14 01:18:56;;;;;;;8.40;7.80;;;;;;;8.08;100.00;96972.44;5016381;27;20554;-58
2023/05/14 01:21:34;;;;;;;7.77;7.20;;;;;;;8.20;100.00;96980.78;5074602;27;21300;-61
2023/05/14 01:24:01;;;;;;;7.57;7.07;;;;;;;8.21;100.00;96973.72;5067227;27;20198;-62
2023/05/14 01:26:30;;;;;;;7.83;7.23;;;;;;;8.25;100.00;96977.66;5051924;27;20210;-60
2023/05/14 01:29:01;;;;;;;8.27;7.57;;;;;;;8.26;100.00;96974.00;5060276;27;20752;-61
2023/05/14 01:31:31;;;;;;;7.60;7.07;;;;;;;8.23;100.00;96974.34;5070541;28;20236;-63
2023/05/14 01:33:59;;;;;;;7.77;7.27;;;;;;;8.26;100.00;96977.47;5013737;28;21303;-61
2023/05/14 01:36:29;;;;;;;7.97;7.27;;;;;;;8.30;100.00;96975.31;5072433;27;20347;-62
2023/05/14 01:38:57;;;;;;;7.83;7.13;;;;;;;8.30;100.00;96972.66;5070292;27;20733;-60
2023/05/14 01:41:26;;;;;;;7.90;7.30;;;;;;;8.26;100.00;96972.19;5055259;27;20229;-63
2023/05/14 01:43:53;;;;;;;8.70;7.77;;;;;;;8.21;100.00;96968.44;5068068;27;20205;-63
2023/05/14 01:46:22;;;;;;;7.40;6.90;;;;;;;8.13;100.00;96965.81;5069461;28;20636;-62
2023/05/14 01:48:50;;;;;;;8.30;7.70;;;;;;;8.06;100.00;96963.88;5013299;28;20764;-59
2023/05/14 01:51:18;;;;;;;8.77;8.07;;;;;;;8.02;100.00;96965.22;5069591;27;20229;-61
2023/05/14 01:53:47;;;;;;;8.10;7.30;;;;;;;7.99;100.00;96968.22;5057384;27;20584;-62
2023/05/14 01:56:14;;;;;;;7.63;7.13;;;;;;;7.93;100.00;96958.34;5053491;28;20209;-61
2023/05/14 01:58:42;;;;;;;8.93;8.23;;;;;;;7.89;100.00;96962.34;5064603;28;20637;-63
2023/05/14 02:01:09;;;;;;;8.70;8.00;;;;;;;7.88;100.00;96956.22;5072356;27;20217;-60
2023/05/14 02:03:37;;;;;;;8.37;7.77;;;;;;;7.80;100.00;96948.34;5009514;28;20700;-61
2023/05/14 02:06:04;;;;;;;7.33;6.73;;;;;;;7.79;100.00;96952.81;5069857;27;20300;-61
2023/05/14 02:08:32;;;;;;;8.77;8.10;;;;;;;7.79;100.00;96962.53;5065536;27;20201;-62
2023/05/14 02:11:01;;;;;;;8.47;7.87;;;;;;;7.87;100.00;96956.41;5073478;27;20218;-61
2023/05/14 02:13:28;;;;;;;8.23;7.63;;;;;;;7.89;100.00;96959.69;5047783;27;20270;-60
2023/05/14 02:15:56;;;;;;;8.73;8.13;;;;;;;7.87;100.00;96957.22;5069536;28;20397;-63
2023/05/14 02:18:24;;;;;;;8.60;7.73;;;;;;;7.93;100.00;96938.06;5068949;28;20346;-60
2023/05/14 02:20:51;;;;;;;8.97;8.37;;;;;;;8.03;100.00;96951.03;5013824;28;21043;-59
2023/05/14 02:23:19;;;;;;;9.03;8.33;;;;;;;8.12;100.00;96954.47;5067637;27;20209;-61
2023/05/14 02:25:57;;;;;;;8.57;7.97;;;;;;;8.09;100.00;96949.53;5070851;28;20198;-61
2023/05/14 02:28:26;;;;;;;8.70;8.00;;;;;;;8.14;100.00;96944.56;5048460;28;20841;-60
2023/05/14 02:30:58;;;;;;;8.30;7.70;;;;;;;8.14;100.00;96949.81;5066693;28;20252;-63
2023/05/14 02:33:26;;;;;;;8.80;8.03;;;;;;;8.09;100.00;96947.69;5067796;28;20697;-62
2023/05/14 02:35:53;;;;;;;9.67;8.87;;;;;;;8.09;100.00;96955.63;5016788;28;20804;-59
2023/05/14 02:38:21;;;;;;;9.17;8.47;;;;;;;8.17;100.00;96956.59;5067251;28;20205;-63
2023/05/14 02:40:48;;;;;;;8.53;7.93;;;;;;;8.20;100.00;96950.97;5049121;28;20890;-64
2023/05/14 02:43:16;;;;;;;8.97;8.27;;;;;;;8.19;100.00;96947.47;5067386;28;20559;-62
2023/05/14 02:45:45;;;;;;;8.30;7.70;;;;;;;8.18;100.00;96951.13;5056862;28;20193;-62
2023/05/14 02:48:13;;;;;;;8.90;8.30;;;;;;;8.24;100.00;96946.97;5071306;28;20198;-59
2023/05/14 02:50:40;;;;;;;8.03;7.50;;;;;;;8.25;100.00;96940.69;5064934;28;20537;-61
2023/05/14 02:53:08;;;;;;;9.47;8.57;;;;;;;8.27;100.00;96943.97;5017889;28;20457;-62
2023/05/14 02:55:36;;;;;;;9.40;8.70;;;;;;;8.28;100.00;96944.78;5069781;28;20252;-58
2023/05/14 02:58:03;;;;;;;8.40;7.80;;;;;;;8.32;100.00;96936.34;5050723;28;20205;-60
2023/05/14 03:00:31;;;;;;;8.50;7.80;;;;;;;8.31;100.00;96933.88;5052653;28;20386;-60
2023/05/14 03:03:00;;;;;;;8.80;8.20;;;;;;;8.26;100.00;96937.06;5072288;27;20942;-62
2023/05/14 03:05:28;;;;;;;9.07;8.43;;;;;;;8.24;100.00;96931.13;5074105;28;20201;-62
2023/05/14 03:07:56;;;;;;;9.53;8.73;;;;;;;8.15;100.00;96926.91;5021812;27;20210;-62
2023/05/14 03:10:23;;;;;;;8.67;7.97;;;;;;;8.13;100.00;96923.59;5073813;27;20229;-63
2023/05/14 03:12:51;;;;;;;9.10;8.50;;;;;;;8.13;100.00;96921.78;5053012;27;20425;-62
2023/05/14 03:15:19;;;;;;;9.47;8.77;;;;;;;8.03;100.00;96924.66;5069948;27;20611;-62
2023/05/14 03:17:47;;;;;;;9.20;8.50;;;;;;;7.97;100.00;96917.44;5061443;27;20539;-62
2023/05/14 03:20:16;;;;;;;9.43;8.73;;;;;;;7.93;100.00;96921.41;5075129;27;20681;-60
2023/05/14 03:22:43;;;;;;;9.53;8.83;;;;;;;7.95;100.00;96922.06;5069722;27;20288;-63
2023/05/14 03:25:11;;;;;;;9.97;9.17;;;;;;;7.92;100.00;96922.41;5022918;27;20276;-61
2023/05/14 03:27:38;;;;;;;9.33;8.53;;;;;;;7.79;100.00;96910.63;5046554;27;20675;-62
2023/05/14 03:30:07;;;;;;;9.13;8.43;;;;;;;7.94;100.00;96923.06;5074932;27;20221;-62
2023/05/14 03:32:36;;;;;;;9.50;8.80;;;;;;;7.96;100.00;96918.44;5053231;27;20924;-60
2023/05/14 03:35:04;;;;;;;10.00;9.20;;;;;;;7.95;100.00;96922.91;5076155;27;20221;-59
2023/05/14 03:37:33;;;;;;;9.37;8.57;;;;;;;7.92;100.00;96920.59;5071869;27;20202;-61
2023/05/14 03:40:00;;;;;;;8.57;7.83;;;;;;;7.82;100.00;96918.19;4993195;27;20550;-60
2023/05/14 03:42:28;;;;;;;8.97;8.20;;;;;;;7.77;100.00;96923.16;5072785;28;20198;-60
2023/05/14 03:44:55;;;;;;;9.27;8.37;;;;;;;7.55;100.00;96902.81;5026407;27;20409;-61
2023/05/14 03:47:23;;;;;;;9.40;8.70;;;;;;;7.53;100.00;96906.44;5054021;27;20743;-60
2023/05/14 03:49:51;;;;;;;9.37;8.67;;;;;;;7.63;100.00;96921.22;5062665;28;20774;-60
2023/05/14 03:52:18;;;;;;;9.33;8.47;;;;;;;7.61;100.00;96921.41;5064438;27;20241;-60
2023/05/14 03:54:47;;;;;;;10.27;9.57;;;;;;;7.62;100.00;96925.69;5057597;27;20628;-62
2023/05/14 03:57:15;;;;;;;9.20;8.57;;;;;;;7.60;100.00;96922.41;5049842;27;20327;-64
2023/05/14 03:59:42;;;;;;;10.07;9.17;;;;;;;7.60;100.00;96930.31;5055245;27;20617;-63
2023/05/14 04:02:10;;;;;;;10.07;9.27;;;;;;;7.49;100.00;96922.75;5049954;28;20464;-60
2023/05/14 04:04:37;;;;;;;9.97;9.23;;;;;;;7.50;100.00;96922.59;5075816;27;20346;-62
2023/05/14 04:07:05;;;;;;;9.87;8.93;;;;;;;7.44;100.00;96917.19;5052348;27;20198;-61
2023/05/14 04:09:33;;;;;;;8.87;8.07;;;;;;;7.43;100.00;96921.66;5073828;27;20224;-58
2023/05/14 04:12:02;;;;;;;9.70;8.80;;;;;;;7.39;100.00;96928.25;5019389;27;20565;-62
2023/05/14 04:14:29;;;;;;;9.30;8.60;;;;;;;7.42;100.00;96935.00;5050264;27;20244;-63
2023/05/14 04:16:57;;;;;;;10.30;9.50;;;;;;;7.34;100.00;96906.84;5018498;27;20221;-62
2023/05/14 04:19:26;;;;;;;9.10;8.40;;;;;;;7.41;100.00;96923.63;5045570;27;20647;-64
2023/05/14 04:21:54;;;;;;;10.03;9.23;;;;;;;7.46;100.00;96928.38;5071013;27;20491;-62
2023/05/14 04:24:21;;;;;;;9.77;8.97;;;;;;;7.52;100.00;96920.63;5073133;28;20457;-61
2023/05/14 04:26:49;;;;;;;10.30;9.30;;;;;;;7.49;100.00;96918.34;4991040;27;20260;-60
2023/05/14 04:29:18;;;;;;;10.67;9.50;;;;;;;7.58;100.00;96918.28;5078413;27;20210;-63
2023/05/14 04:31:45;;;;;;;12.27;9.40;;;;;;;7.54;100.00;96912.53;5019494;27;20234;-62
2023/05/14 04:34:13;;;;;;;10.27;9.47;;;;;;;7.65;100.00;96919.25;5054173;27;20640;-63
2023/05/14 04:36:41;;;;;;;10.23;9.47;;;;;;;7.59;100.00;96893.56;5067620;27;20238;-64
2023/05/14 04:39:11;;;;;;;11.03;10.03;;;;;;;7.79;100.00;96907.97;5069226;27;20205;-61
2023/05/14 04:41:38;;;;;;;10.83;9.93;;;;;;;7.74;100.00;96898.94;5027400;27;20486;-62
2023/05/14 04:44:06;;;;;;;10.17;9.27;;;;;;;7.96;100.00;96911.34;5073701;28;20202;-64
2023/05/14 04:46:35;;;;;;;10.27;9.37;;;;;;;8.03;100.00;96911.47;5054735;27;20379;-62
2023/05/14 04:49:04;;;;;;;9.67;8.87;;;;;;;8.14;100.00;96910.25;5036578;27;20647;-62
2023/05/14 04:51:31;;;;;;;10.53;9.73;;;;;;;8.18;100.00;96894.88;5075310;27;20782;-62
2023/05/14 04:53:59;;;;;;;9.70;9.00;;;;;;;8.34;100.00;96909.78;5052302;27;20205;-63
2023/05/14 04:56:26;;;;;;;9.50;8.80;;;;;;;8.48;100.00;96902.91;5057338;27;20471;-62
2023/05/14 04:58:54;;;;;;;9.60;8.80;;;;;;;8.51;100.00;96895.47;5016088;27;20559;-62
2023/05/14 05:01:22;;;;;;;10.20;9.40;;;;;;;8.58;100.00;96906.16;5072040;27;20356;-61
2023/05/14 05:03:51;;;;;;;9.37;8.67;;;;;;;8.71;100.00;96902.09;5003846;27;20257;-59
2023/05/14 05:06:19;;;;;;;9.80;9.10;;;;;;;8.76;100.00;96878.59;5070582;27;20236;-60
2023/05/14 05:08:46;;;;;;;10.10;9.30;;;;;;;9.07;100.00;96901.41;5043078;27;20209;-59
2023/05/14 05:11:14;;;;;;;9.17;8.47;;;;;;;9.24;100.00;96899.41;5072842;28;20563;-61
2023/05/14 05:13:41;;;;;;;9.93;9.03;;;;;;;9.29;100.00;96901.53;5019429;27;20213;-60
2023/05/14 05:16:09;;;;;;;8.87;8.27;;;;;;;9.47;100.00;96901.13;5074065;27;20259;-57
2023/05/14 05:18:37;;;;;;;9.30;8.50;;;;;;;9.58;100.00;96897.19;5044556;27;20217;-57
2023/05/14 05:21:06;;;;;;;8.20;7.60;;;;;;;9.70;100.00;96901.81;5041098;28;20424;-63
2023/05/14 05:23:34;;;;;;;8.93;8.13;;;;;;;9.80;100.00;96893.59;5068003;27;21032;-59
2023/05/14 05:26:02;;;;;;;9.30;8.60;;;;;;;10.02;100.00;96906.84;5034994;28;20971;-62
2023/05/14 05:28:30;;;;;;;8.70;8.00;;;;;;;10.11;100.00;96912.84;5024759;27;20249;-58
2023/05/14 05:30:57;;;;;;;8.60;7.97;;;;;;;10.14;100.00;96900.09;5068899;28;20963;-56
2023/05/14 05:33:25;;;;;;;8.37;7.83;;;;;;;10.51;100.00;96893.94;5074213;27;20754;-60
2023/05/14 05:35:52;;;;;;;8.03;7.43;;;;;;;10.67;100.00;96898.13;5025547;27;21148;-59
2023/05/14 05:38:21;;;;;;;8.73;8.03;;;;;;;10.57;100.00;96895.81;5069401;28;20205;-58
2023/05/14 05:40:49;;;;;;;7.77;7.17;;;;;;;10.69;100.00;96888.97;5052169;28;20244;-60
2023/05/14 05:43:16;;;;;;;8.20;7.57;;;;;;;10.81;100.00;96894.56;5072311;28;20276;-58
2023/05/14 05:45:45;;;;;;;9.30;8.50;;;;;;;10.78;100.00;96887.00;5019177;27;20249;-58
2023/05/14 05:48:12;;;;;;;8.00;7.27;;;;;;;11.04;100.00;96893.50;5069914;28;21027;-59
2023/05/14 05:50:40;;;;;;;8.17;7.57;;;;;;;11.29;100.00;96887.72;5036262;28;20255;-61
2023/05/14 05:53:08;;;;;;;8.03;7.37;;;;;;;11.42;100.00;96887.81;5064005;27;20578;-63
2023/05/14 05:55:36;;;;;;;8.30;7.67;;;;;;;11.43;100.00;96889.47;5060709;27;20438;-59
2023/05/14 05:58:04;;;;;;;8.23;7.57;;;;;;;11.50;100.00;96883.34;5074276;27;20225;-60
2023/05/14 06:00:32;;;;;;;7.80;7.20;;;;;;;11.57;100.00;96892.16;5021902;27;20618;-60
2023/05/14 06:02:59;;;;;;;8.47;7.77;;;;;;;11.64;100.00;96886.91;5045587;28;20209;-61
2023/05/14 06:05:27;;;;;;;7.57;6.97;;;;;;;11.65;100.00;96889.34;5048684;27;20308;-57
2023/05/14 06:07:55;;;;;;;7.53;6.93;;;;;;;11.69;100.00;96887.91;5047932;27;20267;-61
2023/05/14 06:10:23;;;;;;;8.50;7.70;;;;;;;11.72;100.00;96890.16;5056607;27;20228;-60
2023/05/14 06:12:52;;;;;;;7.53;6.93;;;;;;;11.82;100.00;96897.75;5072209;27;21383;-61
2023/05/14 06:15:20;;;;;;;7.63;6.90;;;;;;;11.92;100.00;96892.09;5037120;28;20400;-59
2023/05/14 06:17:48;;;;;;;7.37;6.83;;;;;;;11.85;100.00;96897.38;5062761;27;20332;-61
2023/05/14 06:20:15;;;;;;;8.27;7.57;;;;;;;11.85;100.00;96876.13;5065355;28;20226;-61
2023/05/14 06:22:43;;;;;;;7.20;6.70;;;;;;;11.94;100.00;96894.56;5042030;28;20220;-59
2023/05/14 06:25:11;;;;;;;7.50;6.90;;;;;;;11.91;100.00;96895.75;5048107;27;20214;-61
2023/05/14 06:27:38;;;;;;;7.60;7.00;;;;;;;12.10;100.00;96886.25;5051952;28;20199;-62
2023/05/14 06:30:09;;;;;;;7.50;6.90;;;;;;;12.29;100.00;96889.13;5067295;28;20928;-60
2023/05/14 06:32:36;;;;;;;6.60;6.03;;;;;;;12.32;100.00;96891.41;5025687;28;20209;-60
2023/05/14 06:35:05;;;;;;;7.33;6.73;;;;;;;12.75;100.00;96884.88;5068448;28;20833;-59
2023/05/14 06:37:32;;;;;;;7.73;7.13;;;;;;;12.85;100.00;96879.13;5032470;27;20225;-61
2023/05/14 06:40:00;;;;;;;7.43;6.83;;;;;;;12.99;100.00;96880.75;5066488;28;20404;-61
2023/05/14 06:42:28;;;;;;;7.50;6.67;;;;;;;13.10;100.00;96881.16;5049863;28;20212;-61
2023/05/14 06:44:55;;;;;;;6.37;5.93;;;;;;;13.15;100.00;96876.03;5069960;28;20227;-61
2023/05/14 06:47:25;;;;;;;7.40;6.90;;;;;;;12.96;100.00;96875.84;5020712;28;20823;-60
2023/05/14 06:49:54;;;;;;;7.80;7.20;;;;;;;12.85;100.00;96879.13;5066619;28;20850;-60
2023/05/14 06:52:22;;;;;;;7.67;7.07;;;;;;;12.86;100.00;96876.25;5050495;28;20433;-60
2023/05/14 06:54:49;;;;;;;6.70;6.20;;;;;;;12.95;100.00;96879.53;5067779;28;20205;-59
2023/05/14 06:57:17;;;;;;;6.57;6.07;;;;;;;13.14;100.00;96874.41;5070083;28;20233;-60
2023/05/14 06:59:44;;;;;;;6.83;6.33;;;;;;;13.27;100.00;96871.69;5056056;28;20232;-58
2023/05/14 07:02:12;;;;;;;7.00;6.50;;;;;;;13.38;100.00;96878.22;5043944;28;20221;-59
2023/05/14 07:04:41;;;;;;;7.27;6.77;;;;;;;13.24;100.00;96869.47;5001924;28;20218;-61
2023/05/14 07:07:14;;;;;;;6.57;6.07;;;;;;;13.26;100.00;96874.59;5044460;28;20224;-61
2023/05/14 07:09:41;;;;;;;6.50;6.10;;;;;;;13.37;100.00;96879.25;5050687;28;20244;-58
2023/05/14 07:12:09;;;;;;;6.87;6.30;;;;;;;13.30;100.00;96876.59;5046654;28;20206;-62
2023/05/14 07:14:37;;;;;;;6.63;6.17;;;;;;;13.55;100.00;96880.44;5047748;28;20419;-60
2023/05/14 07:17:04;;;;;;;6.20;5.80;;;;;;;13.84;100.00;96879.13;5066599;28;20248;-63
2023/05/14 07:19:32;;;;;;;7.03;6.53;;;;;;;13.97;100.00;96880.88;5020151;28;20754;-62
2023/05/14 07:22:01;;;;;;;6.53;6.00;;;;;;;13.96;100.00;96873.09;5069650;28;20706;-55
2023/05/14 07:24:28;;;;;;;7.20;6.50;;;;;;;13.68;100.00;96877.75;5049662;28;20272;-58
2023/05/14 07:26:57;;;;;;;6.30;5.70;;;;;;;13.82;100.00;96880.34;5074403;28;20202;-56
2023/05/14 07:29:24;;;;;;;6.23;5.83;;;;;;;13.68;100.00;96882.25;5066117;28;20224;-60
2023/05/14 07:31:52;;;;;;;5.40;5.00;;;;;;;13.69;100.00;96878.53;5065132;28;20210;-55
2023/05/14 07:34:20;;;;;;;6.27;5.73;;;;;;;13.89;100.00;96865.13;5020331;28;20796;-59
2023/05/14 07:36:47;;;;;;;5.90;5.50;;;;;;;14.03;100.00;96871.22;5068993;28;20871;-58
2023/05/14 07:39:16;;;;;;;5.80;5.40;;;;;;;14.12;100.00;96867.25;5048006;28;20214;-57
2023/05/14 07:41:44;;;;;;;5.57;5.17;;;;;;;14.36;100.00;96862.19;5071152;28;20226;-54
2023/05/14 07:44:11;;;;;;;5.17;4.77;;;;;;;14.52;100.00;96858.19;5073732;28;20279;-58
2023/05/14 07:46:39;;;;;;;5.27;4.77;;;;;;;14.75;100.00;96857.59;5035144;28;21378;-58
2023/05/14 07:49:07;;;;;;;5.00;4.70;;;;;;;14.87;100.00;96865.72;5020968;27;20672;-57
2023/05/14 07:51:34;;;;;;;5.53;5.13;;;;;;;15.38;100.00;96851.47;5074184;28;20233;-60
2023/05/14 07:54:02;;;;;;;5.13;4.80;;;;;;;15.49;100.00;96858.72;5053221;28;20592;-58
2023/05/14 07:56:31;;;;;;;4.00;3.80;;;;;;;15.74;100.00;96861.28;5030297;27;20214;-60
2023/05/14 07:58:58;;;;;;;5.23;4.93;;;;;;;15.81;100.00;96858.53;5076913;28;20640;-58
2023/05/14 08:01:26;;;;;;;5.30;4.90;;;;;;;16.03;100.00;96850.03;5053485;27;20232;-60
2023/05/14 08:03:54;;;;;;;5.27;4.93;;;;;;;16.28;100.00;96838.38;5017241;28;20209;-54
2023/05/14 08:06:22;;;;;;;5.07;4.50;;;;;;;16.06;100.00;96846.91;5073636;27;20286;-60
2023/05/14 08:08:50;;;;;;;4.13;3.93;;;;;;;15.74;100.00;96844.47;5071163;27;20306;-61
2023/05/14 08:11:17;;;;;;;4.23;4.03;;;;;;;15.48;100.00;96846.41;5054334;27;20672;-62
2023/05/14 08:13:46;;;;;;;4.70;4.40;;;;;;;15.49;100.00;96848.03;5068161;27;20241;-62
2023/05/14 08:16:14;;;;;;;6.60;4.33;;;;;;;15.15;100.00;96839.59;5073654;27;21303;-61
2023/05/14 08:18:42;;;;;;;4.80;4.50;;;;;;;15.28;100.00;96828.75;5072791;27;20635;-63
2023/05/14 08:21:10;;;;;;;4.17;3.87;;;;;;;15.47;100.00;96836.75;5030065;27;20709;-62
2023/05/14 08:23:37;;;;;;;4.03;3.73;;;;;;;15.57;100.00;96826.38;5075073;28;20198;-63
2023/05/14 08:26:05;;;;;;;3.60;3.40;;;;;;;15.63;100.00;96827.31;5049125;28;20430;-62
2023/05/14 08:28:33;;;;;;;3.57;3.37;;;;;;;15.75;100.00;96827.38;5075743;28;20404;-64
2023/05/14 08:31:01;;;;;;;3.83;3.63;;;;;;;15.99;100.00;96828.31;5072988;28;20695;-63
2023/05/14 08:33:29;;;;;;;4.33;4.03;;;;;;;16.23;100.00;96815.00;5072092;27;20206;-64
2023/05/14 08:35:59;;;;;;;5.10;4.30;;;;;;;16.57;100.00;96803.78;5024609;27;20209;-62
2023/05/14 08:38:26;;;;;;;4.10;3.90;;;;;;;16.32;100.00;96805.63;5070567;28;20328;-59
2023/05/14 08:40:57;;;;;;;3.90;3.70;;;;;;;16.32;100.00;96804.78;5059400;27;20240;-61
2023/05/14 08:43:26;;;;;;;4.47;4.13;;;;;;;16.37;100.00;96804.13;5073082;27;20218;-59
2023/05/14 08:45:58;;;;;;;3.83;3.60;;;;;;;15.99;100.00;96793.59;5071302;28;20197;-62
2023/05/14 08:48:29;;;;;;;3.70;3.43;;;;;;;16.19;100.00;96797.78;5068311;27;20198;-58
2023/05/14 08:50:57;;;;;;;4.13;3.83;;;;;;;15.98;99.77;96791.97;5017339;27;20282;-61
2023/05/14 08:53:25;;;;;;;3.67;3.47;;;;;;;16.30;96.47;96798.88;5070225;28;20199;-59
2023/05/14 08:55:53;;;;;;;3.83;3.53;;;;;;;16.63;100.00;96792.16;5052220;27;20333;-62
2023/05/14 08:58:21;;;;;;;3.80;3.60;;;;;;;16.14;100.00;96805.69;5070842;28;20754;-59
2023/05/14 09:00:48;;;;;;;3.50;3.27;;;;;;;16.46;99.04;96798.19;5075967;28;20821;-63
2023/05/14 09:03:17;;;;;;;3.83;3.53;;;;;;;16.48;98.83;96798.78;5067639;27;20330;-60
2023/05/14 09:05:47;;;;;;;3.60;3.30;;;;;;;16.46;99.63;96787.47;5063126;27;20371;-62
2023/05/14 09:08:15;;;;;;;3.30;3.10;;;;;;;16.37;98.15;96788.88;5043629;27;20397;-61
2023/05/14 09:10:42;;;;;;;3.40;3.20;;;;;;;16.60;99.35;96788.06;5073932;28;20228;-57
2023/05/14 09:13:10;;;;;;;3.87;3.60;;;;;;;16.96;98.66;96784.56;5057985;27;20622;-61
2023/05/14 09:15:40;;;;;;;3.67;3.47;;;;;;;17.29;93.43;96785.81;5073976;27;20202;-61
2023/05/14 09:18:07;;;;;;;3.30;3.10;;;;;;;17.18;92.56;96784.78;5064591;28;20892;-61
2023/05/14 09:20:35;;;;;;;3.33;3.13;;;;;;;16.85;89.45;96780.84;5076513;27;20641;-61
2023/05/14 09:23:04;;;;;;;3.47;3.27;;;;;;;16.98;90.27;96783.31;5015556;27;20210;-60
2023/05/14 09:25:32;;;;;;;2.97;2.87;;;;;;;17.14;89.88;96776.44;5076462;27;20209;-61
2023/05/14 09:28:00;;;;;;;3.43;3.20;;;;;;;17.55;90.35;96779.09;5045407;27;20214;-60
2023/05/14 09:30:27;;;;;;;3.17;3.00;;;;;;;17.43;87.19;96783.69;5074280;28;20225;-60
2023/05/14 09:32:55;;;;;;;3.30;3.10;;;;;;;17.46;87.46;96778.69;5071800;27;20204;-62
2023/05/14 09:35:24;;;;;;;2.60;2.50;;;;;;;17.32;84.38;96775.47;5070302;28;20666;-63
2023/05/14 09:37:53;;;;;;;3.03;2.93;;;;;;;17.36;84.27;96773.09;5020343;27;20221;-61
2023/05/14 09:40:23;;;;;;;2.97;2.87;;;;;;;17.14;88.60;96771.09;5072384;27;20225;-61
2023/05/14 09:42:51;;;;;;;3.20;3.00;;;;;;;17.57;87.93;96779.66;5054326;27;20610;-60
2023/05/14 09:45:19;;;;;;;2.90;2.70;;;;;;;17.68;85.74;96769.97;5069194;27;20224;-63
2023/05/14 09:47:46;;;;;;;2.97;2.77;;;;;;;17.67;86.47;96764.84;5068067;28;20224;-60
2023/05/14 09:50:14;;;;;;;3.37;3.17;;;;;;;17.56;82.20;96772.69;5067113;27;20252;-61
2023/05/14 09:52:42;;;;;;;3.30;3.10;;;;;;;17.54;83.00;96764.06;5019036;27;20213;-62
2023/05/14 09:55:09;;;;;;;3.23;2.93;;;;;;;17.57;86.71;96757.44;5071963;27;20223;-60
2023/05/14 09:57:39;;;;;;;3.20;3.00;;;;;;;17.70;83.80;96757.13;5053949;27;20298;-59
2023/05/14 10:00:09;;;;;;;3.60;3.40;;;;;;;17.69;83.38;96763.56;5069816;28;20915;-63
2023/05/14 10:02:39;;;;;;;3.23;3.03;;;;;;;17.91;79.61;96754.84;5071751;28;20275;-63
2023/05/14 10:05:08;;;;;;;3.20;3.00;;;;;;;17.99;77.48;96758.97;5072002;27;20338;-62
2023/05/14 10:07:40;;;;;;;3.80;3.60;;;;;;;17.95;80.80;96755.97;5075000;27;20213;-62
2023/05/14 10:10:12;;;;;;;3.20;3.00;;;;;;;17.93;75.37;96755.41;5020022;27;20232;-59
2023/05/14 10:12:41;;;;;;;3.20;2.90;;;;;;;17.66;78.72;96747.97;5054455;28;20214;-61
2023/05/14 10:15:13;;;;;;;3.30;3.10;;;;;;;17.39;83.11;96728.97;5070845;28;20807;-62
2023/05/14 10:17:44;;;;;;;2.87;2.67;;;;;;;17.27;86.70;96726.34;5069155;27;21029;-62
2023/05/14 10:20:15;;;;;;;4.43;2.90;;;;;;;17.45;85.95;96738.75;5069991;27;20751;-58
2023/05/14 10:22:42;;;;;;;3.20;3.00;;;;;;;17.41;82.28;96738.38;5072027;27;20205;-62
2023/05/14 10:25:11;;;;;;;3.43;3.23;;;;;;;17.36;85.42;96728.41;5019692;28;20288;-63
2023/05/14 10:27:40;;;;;;;3.20;3.00;;;;;;;17.39;87.14;96712.91;5051105;28;20206;-59
2023/05/14 10:30:11;;;;;;;3.43;3.27;;;;;;;17.78;84.25;96738.00;5072386;27;20527;-58
2023/05/14 10:32:40;;;;;;;3.47;3.30;;;;;;;18.31;84.20;96729.78;5075122;27;21110;-61
2023/05/14 10:35:19;;;;;;;3.50;3.30;;;;;;;18.55;78.91;96728.78;5068318;28;20319;-62
2023/05/14 10:37:47;;;;;;;3.37;3.00;;;;;;;18.55;81.85;96723.41;5071466;28;20259;-64
2023/05/14 10:40:14;;;;;;;3.10;2.93;;;;;;;19.12;80.23;96726.84;5017064;27;22617;-62
2023/05/14 10:42:44;;;;;;;4.77;4.47;;;;;;;19.04;77.95;96714.69;5040513;28;20202;-62
2023/05/14 10:45:13;;;;;;;3.43;3.23;;;;;;;18.80;81.31;96721.06;5063673;28;20682;-60
2023/05/14 10:47:42;;;;;;;3.60;3.30;;;;;;;18.74;76.41;96723.94;5075645;28;20946;-62
2023/05/14 10:50:12;;;;;;;4.03;3.73;;;;;;;18.34;83.43;96707.00;5065744;27;20300;-60
2023/05/14 10:52:42;;;;;;;3.30;3.10;;;;;;;18.23;85.78;96703.38;5068745;28;20197;-62
2023/05/14 10:55:12;;;;;;;2.77;2.67;;;;;;;18.49;88.94;96709.09;5068999;28;20408;-64
2023/05/14 10:57:42;;;;;;;2.90;2.80;;;;;;;18.65;76.22;96691.34;5018688;28;21056;-61
2023/05/14 11:00:13;;;;;;;3.10;2.90;;;;;;;18.65;73.92;96699.38;5064902;28;20971;-63
2023/05/14 11:02:43;;;;;;;2.60;2.40;;;;;;;18.91;68.37;96707.78;5067533;28;20205;-62
2023/05/14 11:05:14;;;;;;;3.43;3.23;;;;;;;18.78;76.40;96695.53;5072015;28;20279;-61
2023/05/14 11:07:43;;;;;;;3.33;3.10;;;;;;;18.71;78.78;96684.97;5071619;28;20220;-62
2023/05/14 11:10:12;;;;;;;3.60;3.40;;;;;;;18.41;78.01;96699.63;5069532;28;20239;-62
2023/05/14 11:12:41;;;;;;;3.50;3.30;;;;;;;18.30;78.41;96697.81;5021359;28;20340;-62
2023/05/14 11:15:10;;;;;;;3.17;3.00;;;;;;;17.84;76.94;96689.88;5051815;28;20319;-62
2023/05/14 11:17:41;;;;;;;3.10;2.90;;;;;;;18.27;82.18;96672.34;5067381;28;20222;-62
2023/05/14 11:20:10;;;;;;;3.30;3.10;;;;;;;18.65;72.92;96691.34;5071938;28;20478;-62
2023/05/14 11:22:39;;;;;;;2.50;2.33;;;;;;;18.60;67.99;96689.41;5074559;27;20990;-60
2023/05/14 11:25:08;;;;;;;3.23;2.70;;;;;;;18.86;69.65;96694.31;5075127;27;20409;-62
2023/05/14 11:27:37;;;;;;;2.70;2.60;;;;;;;19.13;71.93;96686.31;5024194;27;20213;-62
2023/05/14 11:30:11;;;;;;;3.10;2.90;;;;;;;19.70;70.10;96667.28;5057357;27;20313;-60
2023/05/14 11:32:40;;;;;;;2.80;2.60;;;;;;;19.99;66.44;96661.63;5078411;27;20201;-62
2023/05/14 11:35:08;;;;;;;3.20;3.10;;;;;;;19.48;67.75;96682.41;5071974;27;20225;-63